Time;durP1;ratioP1;P1;durP2;ratioP2;P2;SDS_P1;SDS_P2;PMS_P1;PMS_P2;Temp;Humidity;BMP_temperature;BMP_pressure;BME280_temperature;BME280_humidity;BME280_pressure;Samples;Min_cycle;Max_cycle;Signal;HPM_P1;HPM_P2
2022/01/07 00:01:50;;;;;;;9.80;5.10;;;-2.10;71.50;;;;;;4973779;28;20193;-76
2022/01/07 00:04:25;;;;;;;9.70;4.85;;;-2.10;71.30;;;;;;4973333;28;20193;-77
2022/01/07 00:06:52;;;;;;;7.35;4.35;;;-2.20;71.00;;;;;;4974446;28;20200;-76
2022/01/07 00:09:20;;;;;;;8.10;4.00;;;-2.20;71.10;;;;;;4971211;28;20559;-77
2022/01/07 00:11:50;;;;;;;8.65;4.70;;;-2.20;71.40;;;;;;4973150;28;20194;-76
2022/01/07 00:14:23;;;;;;;6.40;4.57;;;-2.20;71.00;;;;;;4971733;28;20194;-76
2022/01/07 00:16:51;;;;;;;7.20;5.25;;;-2.20;71.40;;;;;;4971371;28;20213;-76
2022/01/07 00:19:20;;;;;;;11.43;5.30;;;-2.30;71.40;;;;;;4971440;28;20251;-74
2022/01/07 00:21:50;;;;;;;12.48;6.20;;;-2.30;71.50;;;;;;4984620;28;20276;-77
2022/01/07 00:24:17;;;;;;;12.85;7.97;;;-2.30;71.80;;;;;;4987818;28;20228;-76
2022/01/07 00:26:45;;;;;;;12.40;6.95;;;-2.30;71.80;;;;;;4973391;28;20703;-76
2022/01/07 00:29:14;;;;;;;12.43;8.10;;;-2.30;72.30;;;;;;4978147;28;20224;-76
2022/01/07 00:31:43;;;;;;;9.27;6.07;;;-2.30;72.80;;;;;;4989373;28;20330;-76
2022/01/07 00:34:10;;;;;;;11.32;5.50;;;-2.30;73.00;;;;;;4987919;28;20481;-77
2022/01/07 00:36:37;;;;;;;10.95;5.43;;;-2.30;73.20;;;;;;4988326;28;20655;-76
2022/01/07 00:39:04;;;;;;;9.27;5.75;;;-2.20;73.70;;;;;;4978753;28;20213;-77
2022/01/07 00:41:31;;;;;;;10.77;6.03;;;-2.20;73.50;;;;;;4971722;28;20198;-76
2022/01/07 00:43:58;;;;;;;9.00;4.80;;;-2.30;72.30;;;;;;4972009;28;20240;-77
2022/01/07 00:46:25;;;;;;;8.85;5.70;;;-2.40;71.30;;;;;;4971362;28;20237;-76
2022/01/07 00:48:59;;;;;;;9.80;5.60;;;-2.50;72.20;;;;;;4980963;28;20243;-76
2022/01/07 00:51:26;;;;;;;8.90;4.75;;;-2.50;72.10;;;;;;4971539;28;20232;-76
2022/01/07 00:53:53;;;;;;;9.63;5.45;;;-2.50;72.50;;;;;;4980491;28;20259;-76
2022/01/07 00:56:20;;;;;;;8.00;5.40;;;-2.50;72.70;;;;;;4991188;28;20283;-76
2022/01/07 00:58:52;;;;;;;11.05;5.20;;;-2.50;72.40;;;;;;4990245;28;20220;-75
2022/01/07 01:01:19;;;;;;;8.10;5.60;;;-2.50;72.00;;;;;;4991137;28;20315;-76
2022/01/07 01:03:46;;;;;;;11.02;5.60;;;-2.50;71.70;;;;;;4990393;28;20247;-76
2022/01/07 01:06:15;;;;;;;7.55;5.20;;;-2.50;72.00;;;;;;4990177;28;20216;-76
2022/01/07 01:08:42;;;;;;;10.15;5.28;;;-2.50;72.40;;;;;;4990959;28;20263;-77
2022/01/07 01:11:09;;;;;;;9.85;5.28;;;-2.50;72.60;;;;;;4990700;28;20193;-77
2022/01/07 01:13:41;;;;;;;7.57;5.22;;;-2.50;73.20;;;;;;4991159;28;20205;-76
2022/01/07 01:16:08;;;;;;;6.50;4.28;;;-2.50;72.90;;;;;;4988232;28;20201;-76
2022/01/07 01:18:36;;;;;;;8.60;4.68;;;-2.60;72.80;;;;;;4989913;28;20201;-77
2022/01/07 01:21:03;;;;;;;10.70;5.88;;;-2.60;73.30;;;;;;4988642;28;20229;-76
2022/01/07 01:23:32;;;;;;;9.25;4.32;;;-2.60;73.40;;;;;;4989988;28;20262;-77
2022/01/07 01:25:59;;;;;;;9.65;5.20;;;-2.70;73.00;;;;;;4990706;28;20593;-77
2022/01/07 01:28:27;;;;;;;9.75;6.10;;;-2.70;73.10;;;;;;4989039;28;20193;-76
2022/01/07 01:30:54;;;;;;;9.95;5.18;;;-2.70;73.80;;;;;;4990267;28;20212;-77
2022/01/07 01:33:25;;;;;;;7.38;4.60;;;-2.70;74.10;;;;;;4988929;28;20321;-77
2022/01/07 01:35:52;;;;;;;7.95;3.65;;;-2.70;74.20;;;;;;4990084;28;20667;-76
2022/01/07 01:38:21;;;;;;;8.30;5.13;;;-2.70;73.80;;;;;;4989323;28;20284;-76
2022/01/07 01:40:52;;;;;;;7.13;4.30;;;-2.60;73.90;;;;;;4989963;28;20303;-77
2022/01/07 01:43:25;;;;;;;7.30;5.28;;;-2.60;73.80;;;;;;4989162;28;20200;-76
2022/01/07 01:45:52;;;;;;;9.10;5.30;;;-2.70;73.00;;;;;;4992420;28;20199;-77
2022/01/07 01:48:23;;;;;;;8.82;5.80;;;-2.70;73.00;;;;;;4992864;28;20190;-76
2022/01/07 01:50:52;;;;;;;12.80;7.85;;;-2.70;73.40;;;;;;4974604;28;20224;-77
2022/01/07 01:53:25;;;;;;;13.68;5.93;;;-2.70;73.20;;;;;;4986864;28;20280;-77
2022/01/07 01:55:54;;;;;;;17.63;6.30;;;-2.70;73.40;;;;;;4993892;28;20275;-74
2022/01/07 01:58:22;;;;;;;12.25;6.40;;;-2.70;73.80;;;;;;4993406;28;20193;-77
2022/01/07 02:00:50;;;;;;;7.65;3.78;;;-2.70;74.10;;;;;;4993600;28;20228;-76
2022/01/07 02:03:19;;;;;;;10.07;4.65;;;-2.70;73.80;;;;;;4992887;28;20671;-77
2022/01/07 02:05:47;;;;;;;8.15;5.32;;;-2.70;74.30;;;;;;4993041;28;20644;-77
2022/01/07 02:08:15;;;;;;;7.78;3.72;;;-2.70;74.70;;;;;;4993397;28;20256;-78
2022/01/07 02:10:43;;;;;;;7.65;3.88;;;-2.70;74.60;;;;;;4993697;28;20602;-77
2022/01/07 02:13:12;;;;;;;10.60;3.80;;;-2.70;74.10;;;;;;4992629;28;20918;-77
2022/01/07 02:15:41;;;;;;;6.20;4.25;;;-2.70;72.60;;;;;;4993574;28;20200;-77
2022/01/07 02:18:08;;;;;;;10.05;4.78;;;-2.80;71.90;;;;;;4990964;28;20552;-75
2022/01/07 02:20:37;;;;;;;12.05;4.55;;;-2.80;71.60;;;;;;4990697;28;20240;-75
2022/01/07 02:23:05;;;;;;;8.75;4.60;;;-2.90;71.50;;;;;;4990957;28;20185;-75
2022/01/07 02:25:36;;;;;;;5.68;3.78;;;-2.90;71.70;;;;;;4991615;28;20200;-76
2022/01/07 02:28:04;;;;;;;6.70;4.53;;;-2.80;72.30;;;;;;4992095;28;20267;-75
2022/01/07 02:30:32;;;;;;;5.85;3.35;;;-2.80;72.60;;;;;;4992588;28;20251;-75
2022/01/07 02:33:00;;;;;;;7.00;4.13;;;-2.80;72.20;;;;;;4990949;28;20216;-75
2022/01/07 02:35:29;;;;;;;8.25;4.30;;;-2.80;71.90;;;;;;4990611;28;20197;-75
2022/01/07 02:37:59;;;;;;;10.02;4.18;;;-2.90;71.30;;;;;;4992398;28;20263;-75
2022/01/07 02:40:26;;;;;;;9.65;5.22;;;-2.90;71.40;;;;;;4992726;28;20301;-76
2022/01/07 02:43:03;;;;;;;7.50;4.40;;;-2.90;72.20;;;;;;4992594;28;20196;-76
2022/01/07 02:45:30;;;;;;;9.77;5.18;;;-2.90;70.40;;;;;;4992896;28;20208;-76
2022/01/07 02:47:59;;;;;;;6.45;3.85;;;-3.00;70.30;;;;;;4992190;28;20235;-76
2022/01/07 02:50:28;;;;;;;6.07;4.53;;;-3.00;70.20;;;;;;4992225;28;20655;-77
2022/01/07 02:52:58;;;;;;;7.22;3.58;;;-3.00;70.20;;;;;;4992145;28;20248;-75
2022/01/07 02:55:26;;;;;;;4.85;3.70;;;-3.20;67.30;;;;;;4992593;28;20203;-76
2022/01/07 02:57:54;;;;;;;10.52;4.72;;;-3.40;64.40;;;;;;4991899;28;20203;-75
2022/01/07 03:00:24;;;;;;;7.88;4.15;;;-3.60;64.90;;;;;;4992341;28;20247;-75
2022/01/07 03:02:52;;;;;;;10.20;5.05;;;-3.70;66.00;;;;;;4991729;28;20189;-75
2022/01/07 03:05:22;;;;;;;7.15;3.55;;;-3.70;67.20;;;;;;4992451;28;20205;-76
2022/01/07 03:07:50;;;;;;;6.13;4.40;;;-3.70;67.90;;;;;;4991835;28;20189;-75
2022/01/07 03:10:21;;;;;;;10.55;4.05;;;-3.70;68.20;;;;;;4992209;28;20204;-76
2022/01/07 03:12:49;;;;;;;7.95;3.47;;;-3.80;68.80;;;;;;4991687;28;20197;-76
2022/01/07 03:15:21;;;;;;;6.03;4.05;;;-3.80;69.20;;;;;;4992194;28;20616;-76
2022/01/07 03:17:49;;;;;;;8.35;4.70;;;-3.70;69.30;;;;;;4991880;28;20259;-76
2022/01/07 03:20:18;;;;;;;10.23;4.75;;;-3.70;70.00;;;;;;4991843;28;20315;-75
2022/01/07 03:22:47;;;;;;;16.40;5.03;;;-3.70;70.40;;;;;;4991343;28;20197;-75
2022/01/07 03:25:15;;;;;;;9.13;3.45;;;-3.70;70.70;;;;;;4992153;28;20653;-77
2022/01/07 03:27:44;;;;;;;7.93;4.47;;;-3.70;71.00;;;;;;4991464;28;20212;-75
2022/01/07 03:30:16;;;;;;;8.95;4.50;;;-3.70;71.10;;;;;;4991299;28;20197;-76
2022/01/07 03:32:44;;;;;;;9.77;5.00;;;-3.80;70.20;;;;;;4991627;28;20197;-76
2022/01/07 03:35:17;;;;;;;10.05;5.80;;;-3.80;70.90;;;;;;4972409;28;20280;-77
2022/01/07 03:37:49;;;;;;;14.73;4.85;;;-3.80;71.50;;;;;;4972515;28;20201;-76
2022/01/07 03:40:19;;;;;;;8.10;4.15;;;-3.80;71.30;;;;;;4972446;28;20197;-75
2022/01/07 03:42:52;;;;;;;10.85;4.90;;;-3.90;70.90;;;;;;4972326;28;20300;-76
2022/01/07 03:45:22;;;;;;;6.47;4.50;;;-3.90;71.50;;;;;;4972432;28;20253;-76
2022/01/07 03:47:51;;;;;;;7.65;4.78;;;-3.90;72.60;;;;;;4972452;28;20284;-76
2022/01/07 03:50:25;;;;;;;13.40;4.88;;;-3.90;73.40;;;;;;4991444;28;20201;-76
2022/01/07 03:52:56;;;;;;;13.80;5.80;;;-3.90;73.70;;;;;;4991531;28;20192;-76
2022/01/07 03:55:25;;;;;;;10.63;5.93;;;-3.80;73.90;;;;;;4991126;28;20197;-76
2022/01/07 03:57:54;;;;;;;7.93;4.55;;;-3.90;74.00;;;;;;4991338;28;20196;-76
2022/01/07 04:00:25;;;;;;;10.93;4.65;;;-3.90;74.10;;;;;;4990891;28;20199;-76
2022/01/07 04:02:55;;;;;;;9.25;5.25;;;-3.80;73.60;;;;;;4991734;28;20284;-76
2022/01/07 04:05:23;;;;;;;10.38;5.45;;;-3.90;73.70;;;;;;4991118;28;20189;-76
2022/01/07 04:07:50;;;;;;;8.90;5.28;;;-3.80;72.60;;;;;;4990819;28;20193;-76
2022/01/07 04:10:20;;;;;;;8.85;4.88;;;-3.90;72.70;;;;;;4990673;28;20272;-75
2022/01/07 04:12:50;;;;;;;6.90;3.50;;;-3.80;72.10;;;;;;4991535;28;20317;-76
2022/01/07 04:15:23;;;;;;;10.35;4.25;;;-3.90;72.20;;;;;;4991130;28;20239;-76
2022/01/07 04:17:54;;;;;;;10.52;4.65;;;-3.90;72.70;;;;;;4990833;28;20272;-76
2022/01/07 04:20:27;;;;;;;6.50;4.47;;;-3.90;72.80;;;;;;4991370;28;20235;-76
2022/01/07 04:22:56;;;;;;;7.00;3.60;;;-3.90;72.80;;;;;;4991014;28;20196;-76
2022/01/07 04:25:25;;;;;;;6.75;3.33;;;-3.90;72.20;;;;;;4991256;28;20555;-76
2022/01/07 04:27:58;;;;;;;6.60;3.72;;;-3.90;72.00;;;;;;4990686;28;20196;-76
2022/01/07 04:30:30;;;;;;;6.03;3.13;;;-4.00;71.90;;;;;;4991423;28;20199;-76
2022/01/07 04:32:57;;;;;;;7.95;3.60;;;-4.00;71.80;;;;;;4990775;28;20546;-76
2022/01/07 04:35:26;;;;;;;4.75;2.90;;;-3.90;72.30;;;;;;4991104;28;20201;-75
2022/01/07 04:37:53;;;;;;;6.43;3.05;;;-3.90;72.30;;;;;;4990632;28;20229;-76
2022/01/07 04:40:21;;;;;;;4.60;3.20;;;-3.80;72.70;;;;;;4990684;28;20203;-76
2022/01/07 04:42:49;;;;;;;8.48;3.50;;;-3.80;72.80;;;;;;4990038;28;20268;-76
2022/01/07 04:45:17;;;;;;;5.13;2.80;;;-3.80;72.20;;;;;;4991077;28;20672;-75
2022/01/07 04:47:51;;;;;;;7.70;2.38;;;-3.80;72.10;;;;;;4991005;28;20610;-76
2022/01/07 04:50:35;;;;;;;3.92;2.92;;;-3.80;71.80;;;;;;4991167;28;20197;-75
2022/01/07 04:53:03;;;;;;;6.95;2.58;;;-3.80;71.00;;;;;;4990820;28;20669;-76
2022/01/07 04:55:36;;;;;;;7.82;3.05;;;-3.90;70.40;;;;;;4990978;28;20196;-76
2022/01/07 04:58:05;;;;;;;6.65;3.30;;;-3.90;68.90;;;;;;4990476;28;20193;-76
2022/01/07 05:00:32;;;;;;;7.15;3.13;;;-4.10;66.90;;;;;;4990786;28;20189;-75
2022/01/07 05:03:01;;;;;;;11.55;4.30;;;-4.20;67.30;;;;;;4990395;28;20544;-76
2022/01/07 05:05:29;;;;;;;6.88;3.65;;;-4.30;67.40;;;;;;4990630;28;20611;-75
2022/01/07 05:07:57;;;;;;;10.52;3.50;;;-4.40;67.90;;;;;;4990073;28;20236;-75
2022/01/07 05:10:27;;;;;;;5.70;3.53;;;-4.40;68.50;;;;;;4990779;28;20193;-76
2022/01/07 05:12:54;;;;;;;4.22;2.67;;;-4.30;68.60;;;;;;4990395;28;20200;-75
2022/01/07 05:15:23;;;;;;;10.13;4.10;;;-4.40;68.40;;;;;;4990689;28;20200;-76
2022/01/07 05:17:52;;;;;;;9.90;4.38;;;-4.40;69.20;;;;;;4988858;28;20212;-75
2022/01/07 05:20:21;;;;;;;7.85;3.42;;;-4.50;70.10;;;;;;4992916;28;20220;-75
2022/01/07 05:22:51;;;;;;;9.73;3.63;;;-4.40;70.90;;;;;;4994413;28;20217;-76
2022/01/07 05:25:21;;;;;;;7.35;3.40;;;-4.40;70.70;;;;;;4993952;28;20668;-75
2022/01/07 05:27:48;;;;;;;6.07;2.50;;;-4.50;71.30;;;;;;4994411;28;20248;-74
2022/01/07 05:30:16;;;;;;;7.28;3.60;;;-4.40;71.50;;;;;;4994297;28;20197;-76
2022/01/07 05:32:43;;;;;;;9.35;4.60;;;-4.40;71.40;;;;;;4994487;28;20236;-76
2022/01/07 05:35:15;;;;;;;7.43;3.85;;;-4.30;71.60;;;;;;4993428;28;20192;-76
2022/01/07 05:37:44;;;;;;;7.75;3.42;;;-4.20;71.50;;;;;;4994070;28;20212;-76
2022/01/07 05:40:12;;;;;;;6.93;3.72;;;-4.20;70.80;;;;;;4993873;28;20196;-76
2022/01/07 05:42:40;;;;;;;10.23;3.72;;;-4.20;70.30;;;;;;4994235;28;20224;-75
2022/01/07 05:45:08;;;;;;;9.40;5.22;;;-4.20;69.90;;;;;;4993537;28;20195;-76
2022/01/07 05:47:35;;;;;;;8.88;4.10;;;-4.30;69.10;;;;;;4993874;28;20583;-75
2022/01/07 05:50:04;;;;;;;6.57;3.95;;;-4.30;69.60;;;;;;4993175;28;20193;-76
2022/01/07 05:52:31;;;;;;;8.27;3.80;;;-4.30;70.00;;;;;;4993934;28;20280;-76
2022/01/07 05:55:00;;;;;;;9.73;4.47;;;-4.20;70.20;;;;;;4993381;28;20193;-76
2022/01/07 05:57:27;;;;;;;5.90;3.90;;;-4.20;70.50;;;;;;4993708;28;20193;-75
2022/01/07 05:59:55;;;;;;;4.78;2.95;;;-4.30;70.40;;;;;;4974202;28;20201;-75
2022/01/07 06:02:23;;;;;;;6.95;3.75;;;-4.20;70.30;;;;;;4984962;28;20220;-76
2022/01/07 06:04:52;;;;;;;9.13;4.10;;;-4.10;70.50;;;;;;4993796;28;20192;-76
2022/01/07 06:07:21;;;;;;;6.32;3.97;;;-4.20;70.40;;;;;;4993383;28;20189;-75
2022/01/07 06:09:49;;;;;;;6.63;3.78;;;-4.10;70.20;;;;;;4993756;28;20209;-75
2022/01/07 06:12:19;;;;;;;8.63;3.10;;;-4.10;69.90;;;;;;4993145;28;20185;-75
2022/01/07 06:14:46;;;;;;;6.47;3.50;;;-4.20;69.10;;;;;;4993607;28;20204;-75
2022/01/07 06:17:14;;;;;;;6.97;3.67;;;-4.10;69.50;;;;;;4992864;28;20220;-76
2022/01/07 06:19:46;;;;;;;4.70;2.88;;;-4.10;69.70;;;;;;4992854;28;20307;-76
2022/01/07 06:22:13;;;;;;;6.75;2.85;;;-4.20;68.50;;;;;;4986167;28;20353;-76
2022/01/07 06:24:40;;;;;;;5.20;3.28;;;-4.30;67.00;;;;;;4974005;28;20198;-76
2022/01/07 06:27:08;;;;;;;8.43;3.60;;;-4.40;65.80;;;;;;4984740;28;20243;-76
2022/01/07 06:29:38;;;;;;;10.00;3.95;;;-4.50;65.40;;;;;;4993167;28;20196;-77
2022/01/07 06:32:07;;;;;;;13.32;5.15;;;-4.70;66.10;;;;;;4981753;28;20224;-76
2022/01/07 06:34:34;;;;;;;16.00;7.65;;;-4.70;67.30;;;;;;4973916;28;20189;-75
2022/01/07 06:37:01;;;;;;;25.70;10.80;;;-4.70;67.70;;;;;;4982942;28;20189;-76
2022/01/07 06:39:29;;;;;;;14.43;7.20;;;-4.70;68.60;;;;;;4993335;28;20197;-76
2022/01/07 06:41:58;;;;;;;15.75;6.45;;;-4.70;69.80;;;;;;4984781;28;20570;-76
2022/01/07 06:44:26;;;;;;;7.28;4.70;;;-4.70;70.40;;;;;;4973932;28;20200;-76
2022/01/07 06:46:55;;;;;;;10.60;4.25;;;-4.70;70.80;;;;;;4980335;28;20275;-76
2022/01/07 06:49:22;;;;;;;8.45;4.38;;;-4.70;71.40;;;;;;4992875;28;20201;-75
2022/01/07 06:51:51;;;;;;;6.20;3.92;;;-4.80;72.00;;;;;;4986491;28;20194;-74
2022/01/07 06:54:19;;;;;;;4.95;3.42;;;-4.70;72.30;;;;;;4973901;28;20524;-76
2022/01/07 06:56:47;;;;;;;5.35;3.00;;;-4.70;72.80;;;;;;4974063;28;20314;-75
2022/01/07 06:59:16;;;;;;;5.68;3.85;;;-4.60;73.10;;;;;;4973242;28;20193;-76
2022/01/07 07:01:47;;;;;;;7.45;4.13;;;-4.50;73.10;;;;;;4987664;28;20232;-75
2022/01/07 07:04:17;;;;;;;5.00;3.38;;;-4.40;72.90;;;;;;4993116;28;20213;-76
2022/01/07 07:06:49;;;;;;;8.57;4.65;;;-4.30;72.20;;;;;;4978102;28;20190;-76
2022/01/07 07:09:20;;;;;;;6.63;4.35;;;-4.30;72.00;;;;;;4973374;28;20541;-75
2022/01/07 07:11:47;;;;;;;7.47;3.20;;;-4.30;72.40;;;;;;4986682;28;20632;-74
2022/01/07 07:14:16;;;;;;;7.85;3.25;;;-4.10;72.00;;;;;;4992822;28;20255;-76
2022/01/07 07:16:44;;;;;;;7.22;3.40;;;-4.00;71.90;;;;;;4979486;28;20240;-76
2022/01/07 07:19:12;;;;;;;7.65;3.92;;;-3.90;71.70;;;;;;4975068;28;20193;-76
2022/01/07 07:21:42;;;;;;;4.50;2.97;;;-3.80;71.90;;;;;;4992147;28;20213;-77
2022/01/07 07:24:09;;;;;;;8.93;4.40;;;-3.80;72.20;;;;;;4992516;28;20371;-76
2022/01/07 07:26:36;;;;;;;6.53;3.70;;;-3.60;72.30;;;;;;4991817;28;20208;-76
2022/01/07 07:29:04;;;;;;;5.85;3.15;;;-3.50;72.50;;;;;;4992913;28;20193;-76
2022/01/07 07:31:32;;;;;;;6.00;3.15;;;-3.20;72.80;;;;;;4992232;28;20193;-76
2022/01/07 07:36:51;;;;;;;7.25;3.95;;;-2.50;71.60;;;;;;4919737;28;20199;-77
2022/01/07 07:39:19;;;;;;;7.38;4.80;;;-2.00;68.60;;;;;;4991646;28;20193;-77
2022/01/07 07:41:48;;;;;;;10.40;5.20;;;-1.70;68.80;;;;;;4992016;28;20337;-77
2022/01/07 07:44:16;;;;;;;13.18;7.90;;;-1.30;68.60;;;;;;4991226;28;20530;-76
2022/01/07 07:46:43;;;;;;;13.48;9.07;;;-0.90;66.30;;;;;;4992149;28;20193;-77
2022/01/07 07:49:11;;;;;;;10.60;8.15;;;-0.70;63.80;;;;;;4991862;28;20189;-77
2022/01/07 07:51:39;;;;;;;12.93;6.38;;;-0.60;63.70;;;;;;4991644;28;20189;-77
2022/01/07 07:54:09;;;;;;;10.57;5.60;;;-0.30;65.60;;;;;;4992292;28;20197;-77
2022/01/07 07:56:36;;;;;;;9.60;5.25;;;0.00;62.90;;;;;;4992192;28;20240;-77
2022/01/07 07:59:06;;;;;;;7.40;4.55;;;0.10;61.50;;;;;;4992233;28;20200;-77
2022/01/07 08:01:34;;;;;;;9.82;4.13;;;0.20;58.70;;;;;;4991469;28;20193;-76
2022/01/07 08:04:07;;;;;;;8.68;4.30;;;0.20;59.30;;;;;;4992292;28;20228;-78
2022/01/07 08:06:34;;;;;;;8.68;3.65;;;0.30;59.40;;;;;;4991676;28;20208;-77
2022/01/07 08:09:03;;;;;;;6.30;3.40;;;0.40;59.40;;;;;;4991850;28;20623;-78
2022/01/07 08:11:39;;;;;;;4.30;3.08;;;0.20;59.30;;;;;;4991798;28;20363;-78
2022/01/07 08:16:51;;;;;;;6.75;4.88;;;0.00;60.00;;;;;;4991960;28;20195;-78
2022/01/07 08:19:18;;;;;;;8.32;7.00;;;-0.10;60.20;;;;;;4992293;28;20224;-78
2022/01/07 08:21:45;;;;;;;24.27;14.55;;;-0.20;61.20;;;;;;4992324;28;20223;-78
2022/01/07 08:24:12;;;;;;;15.73;8.30;;;-0.10;62.30;;;;;;4992535;28;20193;-79
2022/01/07 08:26:41;;;;;;;28.92;13.48;;;0.00;62.80;;;;;;4992006;28;20220;-78
2022/01/07 08:29:11;;;;;;;33.38;27.20;;;0.10;63.60;;;;;;4992364;28;20189;-78
2022/01/07 08:37:14;;;;;;;5.20;2.85;;;0.50;61.40;;;;;;4992143;28;20196;-78
2022/01/07 08:39:40;;;;;;;5.40;2.75;;;0.60;60.30;;;;;;4992040;28;20204;-78
2022/01/07 08:42:09;;;;;;;4.70;3.17;;;0.60;61.40;;;;;;4991677;28;20279;-78
2022/01/07 08:44:36;;;;;;;6.13;3.03;;;0.70;61.10;;;;;;4991625;28;20228;-78
2022/01/07 08:47:03;;;;;;;4.90;4.00;;;0.80;61.20;;;;;;4992945;28;20193;-78
2022/01/07 08:49:30;;;;;;;21.88;14.73;;;1.00;62.30;;;;;;4991940;28;20636;-78
2022/01/07 08:52:00;;;;;;;7.40;5.78;;;1.30;61.30;;;;;;4988970;28;20674;-74
2022/01/07 08:54:27;;;;;;;5.38;3.90;;;1.30;59.30;;;;;;4992751;28;20192;-78
2022/01/07 08:56:58;;;;;;;7.20;3.80;;;1.30;59.90;;;;;;4993858;28;20201;-78
2022/01/07 08:59:26;;;;;;;7.50;4.38;;;1.60;59.80;;;;;;4995608;28;20193;-78
2022/01/07 09:01:53;;;;;;;6.57;4.93;;;1.80;59.80;;;;;;4995877;28;20189;-78
2022/01/07 09:04:20;;;;;;;13.30;9.60;;;2.10;59.60;;;;;;4996331;28;20197;-78
2022/01/07 09:06:47;;;;;;;7.57;5.25;;;2.40;58.40;;;;;;4995620;28;20276;-78
2022/01/07 09:09:14;;;;;;;6.53;4.53;;;2.60;57.20;;;;;;4996391;28;20228;-79
2022/01/07 09:11:41;;;;;;;6.90;4.45;;;2.70;57.20;;;;;;4995801;28;20644;-78
2022/01/07 09:14:07;;;;;;;8.55;4.55;;;3.00;58.00;;;;;;4995526;28;20189;-78
2022/01/07 09:16:36;;;;;;;6.65;3.47;;;3.30;56.50;;;;;;4995551;28;20255;-78
2022/01/07 09:19:03;;;;;;;4.10;2.50;;;3.50;55.20;;;;;;4995718;28;20193;-78
2022/01/07 09:21:30;;;;;;;2.60;1.67;;;3.60;55.90;;;;;;4995158;28;20568;-78
2022/01/07 09:23:57;;;;;;;7.70;3.25;;;3.90;54.80;;;;;;4995855;28;20216;-78
2022/01/07 09:26:24;;;;;;;5.97;2.45;;;3.90;55.10;;;;;;4996064;28;20193;-78
2022/01/07 09:28:51;;;;;;;5.13;3.63;;;3.70;54.00;;;;;;4995309;28;20185;-78
2022/01/07 09:31:18;;;;;;;5.28;3.63;;;3.50;54.50;;;;;;4995768;28;20641;-77
2022/01/07 09:33:46;;;;;;;5.97;4.70;;;3.40;54.50;;;;;;4995555;28;20905;-78
2022/01/07 09:36:13;;;;;;;5.00;4.00;;;3.50;54.30;;;;;;4995935;28;20201;-79
2022/01/07 09:38:40;;;;;;;3.80;2.30;;;3.50;54.50;;;;;;4995108;28;20251;-78
2022/01/07 09:41:08;;;;;;;4.68;2.70;;;3.50;53.80;;;;;;4995400;28;20201;-77
2022/01/07 09:43:35;;;;;;;5.07;2.30;;;3.70;53.50;;;;;;4994887;28;20220;-78
2022/01/07 09:46:02;;;;;;;3.83;1.88;;;3.80;53.80;;;;;;4995021;28;20235;-77
2022/01/07 09:48:29;;;;;;;3.33;2.03;;;3.90;53.50;;;;;;4995645;28;20216;-78
2022/01/07 09:50:59;;;;;;;2.58;1.52;;;4.10;53.80;;;;;;4993901;28;20227;-78
2022/01/07 09:53:27;;;;;;;4.72;1.88;;;4.40;54.10;;;;;;4993748;28;20579;-78
2022/01/07 09:55:54;;;;;;;2.95;1.77;;;4.80;52.50;;;;;;4994161;28;20283;-79
2022/01/07 09:58:26;;;;;;;5.40;3.90;;;5.30;52.70;;;;;;4993683;28;20228;-77
2022/01/07 10:01:01;;;;;;;6.30;4.38;;;5.50;51.10;;;;;;4993380;28;20221;-77
2022/01/07 10:03:37;;;;;;;3.80;2.53;;;5.90;51.90;;;;;;4993880;28;20232;-77
2022/01/07 10:06:17;;;;;;;3.20;1.95;;;6.20;50.80;;;;;;4992884;28;20184;-78
2022/01/07 10:08:46;;;;;;;3.38;1.80;;;6.30;48.10;;;;;;4994485;28;20239;-78
2022/01/07 10:11:18;;;;;;;2.30;1.30;;;6.10;47.30;;;;;;4993962;28;20209;-77
2022/01/07 10:13:46;;;;;;;3.55;1.85;;;5.90;48.20;;;;;;4993276;28;20679;-74
2022/01/07 10:16:15;;;;;;;3.80;2.13;;;5.90;48.50;;;;;;4994444;28;20197;-79
2022/01/07 10:18:42;;;;;;;3.72;2.08;;;5.80;47.90;;;;;;4994395;28;20317;-77
2022/01/07 10:21:12;;;;;;;4.47;1.90;;;5.80;48.90;;;;;;4994593;28;20279;-78
2022/01/07 10:23:39;;;;;;;5.10;1.77;;;5.80;48.50;;;;;;4994469;28;20335;-79
2022/01/07 10:26:14;;;;;;;3.40;1.92;;;5.80;47.60;;;;;;4994982;28;20582;-78
2022/01/07 10:28:42;;;;;;;5.55;2.65;;;5.70;48.10;;;;;;4994482;28;20194;-78
2022/01/07 10:31:09;;;;;;;8.00;3.58;;;5.60;48.40;;;;;;4994948;28;20192;-78
2022/01/07 10:33:38;;;;;;;7.40;4.03;;;5.70;48.40;;;;;;4994708;28;20205;-75
2022/01/07 10:36:18;;;;;;;12.48;6.57;;;5.70;48.70;;;;;;4975724;28;20300;-78
2022/01/07 10:38:51;;;;;;;21.00;14.77;;;5.90;48.90;;;;;;4975627;28;20655;-78
2022/01/07 10:41:19;;;;;;;28.80;16.15;;;6.00;48.00;;;;;;4993607;28;20243;-79
2022/01/07 10:43:46;;;;;;;24.80;12.93;;;6.20;48.60;;;;;;4993252;28;20213;-78
2022/01/07 10:46:24;;;;;;;23.10;12.73;;;6.40;47.90;;;;;;4994390;28;20937;-76
2022/01/07 10:48:54;;;;;;;19.98;11.40;;;6.50;47.60;;;;;;4993919;28;20596;-76
2022/01/07 10:51:25;;;;;;;12.13;6.22;;;6.50;47.30;;;;;;4994749;28;20661;-77
2022/01/07 10:53:56;;;;;;;11.40;7.50;;;6.60;46.40;;;;;;4994203;28;20201;-76
2022/01/07 10:56:33;;;;;;;12.93;7.57;;;6.50;46.10;;;;;;4990607;28;20207;-78
2022/01/07 10:59:04;;;;;;;12.55;7.45;;;6.70;46.40;;;;;;4987660;28;20573;-77
2022/01/07 11:01:39;;;;;;;10.45;7.85;;;6.80;46.00;;;;;;4985017;28;20511;-76
2022/01/07 11:04:10;;;;;;;13.20;7.85;;;6.80;46.30;;;;;;4992248;28;20578;-76
2022/01/07 11:06:40;;;;;;;12.30;7.38;;;7.00;46.40;;;;;;5002427;28;20193;-76
2022/01/07 11:09:10;;;;;;;13.38;6.20;;;7.20;46.30;;;;;;4993425;28;20207;-76
2022/01/07 11:11:46;;;;;;;11.60;7.13;;;7.50;46.00;;;;;;4992038;28;20530;-76
2022/01/07 11:14:17;;;;;;;8.75;5.20;;;7.70;44.90;;;;;;4993034;28;20456;-77
2022/01/07 11:16:48;;;;;;;6.68;4.43;;;7.80;44.70;;;;;;4992004;28;20193;-76
2022/01/07 11:19:20;;;;;;;7.25;4.00;;;8.00;44.40;;;;;;4993051;28;20242;-80
2022/01/07 11:21:54;;;;;;;5.22;4.07;;;8.20;44.20;;;;;;4993012;28;20663;-76
2022/01/07 11:24:39;;;;;;;9.25;4.22;;;8.20;42.70;;;;;;4993109;28;20230;-77
2022/01/07 11:27:15;;;;;;;13.05;7.35;;;8.00;42.70;;;;;;4992810;28;20201;-76
2022/01/07 11:29:54;;;;;;;12.25;7.55;;;7.90;41.60;;;;;;4992827;28;20243;-76
2022/01/07 11:32:36;;;;;;;16.90;8.63;;;7.80;43.50;;;;;;4992823;28;20671;-76
2022/01/07 11:35:49;;;;;;;15.07;9.90;;;7.60;43.10;;;;;;4992061;28;20268;-76
2022/01/07 11:38:43;;;;;;;17.98;11.82;;;7.70;44.40;;;;;;4991861;28;20235;-78
2022/01/07 11:41:19;;;;;;;21.20;12.05;;;7.90;44.90;;;;;;4989411;28;20248;-77
2022/01/07 11:43:49;;;;;;;24.55;13.05;;;8.00;44.50;;;;;;4984265;28;20587;-76
2022/01/07 11:46:31;;;;;;;24.45;12.40;;;7.90;43.60;;;;;;4976136;28;20649;-77
2022/01/07 11:49:03;;;;;;;22.25;13.32;;;7.80;43.60;;;;;;4975686;28;20204;-77
2022/01/07 11:51:44;;;;;;;25.08;13.15;;;7.80;43.30;;;;;;4990761;28;20204;-76
2022/01/07 11:54:22;;;;;;;20.02;11.82;;;7.70;43.80;;;;;;4981045;28;20953;-77
2022/01/07 11:56:50;;;;;;;16.00;9.20;;;7.60;44.10;;;;;;4978636;28;20244;-78
2022/01/07 11:59:27;;;;;;;11.50;7.93;;;7.50;44.50;;;;;;4989987;28;20596;-77
2022/01/07 12:02:15;;;;;;;16.52;7.88;;;7.40;45.10;;;;;;4990566;28;20196;-77
2022/01/07 12:04:42;;;;;;;10.27;6.57;;;7.40;44.80;;;;;;4987902;28;20223;-78
2022/01/07 12:07:15;;;;;;;6.63;4.65;;;7.30;44.00;;;;;;4976888;28;20243;-76
2022/01/07 12:10:18;;;;;;;6.40;4.95;;;7.30;43.50;;;;;;4989353;28;20265;-77
2022/01/07 12:12:51;;;;;;;7.32;4.80;;;7.40;44.80;;;;;;4987983;28;20276;-76
2022/01/07 12:15:19;;;;;;;10.82;4.65;;;7.50;43.30;;;;;;4975840;28;20649;-78
2022/01/07 12:17:55;;;;;;;9.43;5.22;;;7.60;43.60;;;;;;4977828;28;20189;-76
2022/01/07 12:20:48;;;;;;;8.65;4.60;;;7.70;44.90;;;;;;4980323;28;20238;-77
2022/01/07 12:23:23;;;;;;;10.20;5.32;;;7.80;44.80;;;;;;4978888;28;20669;-76
2022/01/07 12:25:57;;;;;;;6.38;3.45;;;7.80;44.70;;;;;;4972615;28;20189;-78
2022/01/07 12:28:27;;;;;;;6.20;4.00;;;7.70;44.50;;;;;;4977336;28;20192;-75
2022/01/07 12:31:06;;;;;;;4.57;3.25;;;7.60;44.50;;;;;;4983634;28;20603;-76
2022/01/07 12:33:34;;;;;;;7.22;3.45;;;7.60;44.60;;;;;;4972311;28;20197;-76
2022/01/07 12:36:01;;;;;;;6.63;3.67;;;7.50;44.80;;;;;;4971857;28;20248;-78
2022/01/07 12:38:30;;;;;;;11.93;8.38;;;7.40;44.80;;;;;;4973155;28;20189;-78
2022/01/07 12:41:01;;;;;;;6.53;5.72;;;7.30;44.90;;;;;;4977136;28;20647;-77
2022/01/07 12:43:35;;;;;;;6.63;4.88;;;7.20;44.80;;;;;;4975596;28;20692;-76
2022/01/07 12:46:05;;;;;;;6.95;3.22;;;7.20;44.90;;;;;;4977017;28;20636;-76
2022/01/07 12:48:40;;;;;;;5.60;1.83;;;7.20;43.10;;;;;;4983276;28;20199;-76
2022/01/07 12:51:11;;;;;;;2.75;1.42;;;7.20;44.10;;;;;;4977444;28;20287;-76
2022/01/07 12:54:00;;;;;;;5.20;2.08;;;7.10;43.10;;;;;;4975046;28;20181;-77
2022/01/07 12:56:31;;;;;;;7.25;1.80;;;7.10;41.70;;;;;;4971725;28;20735;-76
2022/01/07 12:59:19;;;;;;;2.72;1.23;;;6.90;42.30;;;;;;4972951;28;20208;-76
2022/01/07 13:01:50;;;;;;;2.10;1.20;;;6.70;40.80;;;;;;4977285;28;20193;-75
2022/01/07 13:04:26;;;;;;;5.13;2.70;;;6.40;40.70;;;;;;4982687;28;20303;-76
2022/01/07 13:06:55;;;;;;;5.03;2.33;;;6.20;39.60;;;;;;4986047;28;20192;-77
2022/01/07 13:09:30;;;;;;;3.97;1.75;;;5.80;40.30;;;;;;4989373;28;20659;-77
2022/01/07 13:12:01;;;;;;;5.05;2.08;;;5.70;41.10;;;;;;4987080;28;20243;-77
2022/01/07 13:14:29;;;;;;;5.68;3.00;;;5.50;40.50;;;;;;4977260;28;20192;-76